Time;durP1;ratioP1;P1;durP2;ratioP2;P2;SDS_P1;SDS_P2;PMS_P1;PMS_P2;Temp;Humidity;BMP_temperature;BMP_pressure;BME280_temperature;BME280_humidity;BME280_pressure;Samples;Min_cycle;Max_cycle;Signal;HPM_P1;HPM_P2
2021/10/07 00:00:15;;;;;;;20.92;3.17;;;;;;;14.94;79.98;102458.28;4886624;29;20124;-67
2021/10/07 00:02:43;;;;;;;14.60;3.35;;;;;;;14.86;80.17;102463.38;4870432;29;20047;-67
2021/10/07 00:05:10;;;;;;;16.05;3.13;;;;;;;14.91;80.08;102460.81;4879416;28;20590;-67
2021/10/07 00:07:35;;;;;;;19.95;3.28;;;;;;;14.89;80.19;102462.53;4869007;29;20040;-66
2021/10/07 00:10:00;;;;;;;14.40;2.65;;;;;;;14.83;80.04;102458.03;4870145;29;20404;-66
2021/10/07 00:12:26;;;;;;;12.48;2.70;;;;;;;14.82;79.78;102464.13;4881477;29;20054;-67
2021/10/07 00:14:51;;;;;;;21.88;3.03;;;;;;;14.75;79.98;102464.88;4873221;29;20143;-67
2021/10/07 00:17:17;;;;;;;21.90;2.92;;;;;;;14.64;79.61;102461.09;4870861;28;20048;-66
2021/10/07 00:19:42;;;;;;;16.85;2.85;;;;;;;14.56;79.91;102466.22;4879972;29;20097;-66
2021/10/07 00:22:07;;;;;;;10.57;2.70;;;;;;;14.50;79.82;102468.69;4857578;29;20086;-67
2021/10/07 00:24:33;;;;;;;14.77;2.72;;;;;;;14.61;79.69;102463.69;4882879;28;20404;-66
2021/10/07 00:26:58;;;;;;;13.65;2.83;;;;;;;14.61;79.69;102466.31;4869510;28;20191;-66
2021/10/07 00:32:10;;;;;;;19.45;2.78;;;;;;;14.84;79.00;102467.69;4865977;29;20036;-67
2021/10/07 00:39:33;;;;;;;13.55;2.80;;;;;;;14.92;79.07;102475.72;4883963;28;20059;-67
2021/10/07 00:41:58;;;;;;;20.35;3.15;;;;;;;14.94;79.31;102481.91;4887980;28;20163;-66
2021/10/07 00:44:30;;;;;;;10.40;2.65;;;;;;;14.65;80.41;102477.75;4884389;29;20051;-66
2021/10/07 00:46:59;;;;;;;18.92;3.22;;;;;;;14.89;80.14;102475.66;4877333;28;20048;-64
2021/10/07 00:49:26;;;;;;;25.02;4.07;;;;;;;14.90;80.06;102482.69;4865554;29;20052;-66
2021/10/07 00:51:52;;;;;;;21.45;3.85;;;;;;;15.01;79.79;102476.78;4867670;29;20429;-66
2021/10/07 00:54:19;;;;;;;22.23;3.75;;;;;;;15.09;79.73;102486.59;4883976;28;20055;-66
2021/10/07 00:56:45;;;;;;;19.00;3.17;;;;;;;15.21;79.46;102486.81;4884736;29;20059;-66
2021/10/07 00:59:11;;;;;;;20.25;3.33;;;;;;;15.22;79.46;102483.34;4850942;28;20953;-65
2021/10/07 01:01:36;;;;;;;14.52;3.35;;;;;;;15.22;79.27;102489.50;4882854;29;20039;-66
2021/10/07 01:04:03;;;;;;;21.98;3.65;;;;;;;15.24;79.24;102492.16;4886511;29;20635;-66
2021/10/07 01:06:29;;;;;;;16.08;3.70;;;;;;;15.23;79.25;102491.28;4888645;29;20131;-66
2021/10/07 01:08:54;;;;;;;16.40;3.33;;;;;;;15.22;79.22;102493.84;4860988;29;20840;-66
2021/10/07 01:11:20;;;;;;;11.65;2.90;;;;;;;15.16;79.27;102505.13;4879897;29;20043;-66
2021/10/07 01:13:45;;;;;;;11.32;3.67;;;;;;;15.10;79.17;102497.13;4880046;29;20059;-66
2021/10/07 01:16:10;;;;;;;15.82;3.40;;;;;;;15.04;78.89;102502.25;4883954;28;20306;-67
2021/10/07 01:18:36;;;;;;;20.02;3.60;;;;;;;15.03;79.04;102505.72;4887178;29;20044;-68
2021/10/07 01:21:01;;;;;;;19.75;3.45;;;;;;;14.97;79.17;102502.97;4879810;29;20371;-66
2021/10/07 01:23:27;;;;;;;13.77;3.40;;;;;;;14.97;79.04;102503.88;4887648;29;20055;-66
2021/10/07 01:25:52;;;;;;;9.68;2.90;;;;;;;14.97;78.90;102505.59;4870484;29;20138;-66
2021/10/07 01:28:18;;;;;;;14.02;3.17;;;;;;;14.94;78.92;102509.03;4886627;29;20483;-66
2021/10/07 01:30:43;;;;;;;14.90;3.05;;;;;;;14.95;79.02;102515.19;4890909;28;20059;-68
2021/10/07 01:33:09;;;;;;;11.68;2.88;;;;;;;14.97;78.99;102518.72;4856956;28;20599;-67
2021/10/07 01:35:34;;;;;;;13.13;3.40;;;;;;;14.86;79.57;102510.63;4888039;28;20402;-67
2021/10/07 01:38:00;;;;;;;13.05;2.85;;;;;;;14.93;79.30;102519.53;4886468;29;20150;-67
2021/10/07 01:40:25;;;;;;;16.75;3.33;;;;;;;14.68;80.18;102525.09;4879389;29;20040;-67
2021/10/07 01:42:52;;;;;;;14.15;3.22;;;;;;;14.58;80.49;102524.84;4888591;28;20067;-67
2021/10/07 01:45:18;;;;;;;16.92;3.30;;;;;;;14.55;80.78;102523.91;4881859;28;20052;-67
2021/10/07 01:47:43;;;;;;;13.15;3.10;;;;;;;14.55;80.64;102523.91;4862837;29;20044;-67
2021/10/07 01:50:11;;;;;;;9.10;3.22;;;;;;;14.53;80.89;102531.75;4892331;28;20043;-67
2021/10/07 01:52:36;;;;;;;12.13;3.30;;;;;;;14.52;81.06;102529.97;4885336;29;20126;-66
2021/10/07 01:55:02;;;;;;;14.20;3.30;;;;;;;14.52;80.88;102537.84;4877068;28;20646;-67
2021/10/07 01:57:27;;;;;;;12.60;3.17;;;;;;;14.54;81.27;102536.16;4871128;29;20047;-65
2021/10/07 01:59:53;;;;;;;16.38;3.28;;;;;;;14.54;81.13;102541.41;4882808;28;20476;-66
2021/10/07 02:02:18;;;;;;;20.20;3.42;;;;;;;14.57;81.09;102538.84;4875062;29;20869;-67
2021/10/07 02:04:43;;;;;;;12.93;3.30;;;;;;;14.59;81.13;102545.00;4885481;29;20616;-67
2021/10/07 02:07:09;;;;;;;15.50;3.25;;;;;;;14.61;81.16;102545.06;4874683;28;20869;-68
2021/10/07 02:09:34;;;;;;;14.55;3.30;;;;;;;14.62;80.99;102546.84;4892176;28;20060;-67
2021/10/07 02:11:59;;;;;;;13.90;3.33;;;;;;;14.64;80.99;102547.72;4891616;29;20110;-67
2021/10/07 02:14:25;;;;;;;16.90;3.08;;;;;;;14.64;81.08;102547.72;4884536;28;20099;-67
2021/10/07 02:16:52;;;;;;;12.60;3.22;;;;;;;14.65;80.97;102553.88;4880703;29;20138;-68
2021/10/07 02:19:18;;;;;;;12.00;2.88;;;;;;;14.86;80.45;102547.38;4885139;28;20530;-67
2021/10/07 02:21:46;;;;;;;14.90;3.15;;;;;;;14.99;79.60;102562.56;4869487;29;20111;-68
2021/10/07 02:24:12;;;;;;;13.95;2.90;;;;;;;15.05;79.46;102555.69;4874460;29;20059;-67
2021/10/07 02:26:37;;;;;;;13.98;3.15;;;;;;;15.06;79.17;102555.72;4865398;29;20059;-67
2021/10/07 02:29:04;;;;;;;18.92;3.50;;;;;;;15.09;79.37;102560.13;4878209;28;20084;-67
2021/10/07 02:31:30;;;;;;;12.18;2.90;;;;;;;15.11;79.14;102558.44;4887206;28;20047;-66
2021/10/07 02:33:55;;;;;;;16.88;3.60;;;;;;;15.10;79.23;102565.44;4880827;28;20482;-66
2021/10/07 02:36:22;;;;;;;13.32;3.10;;;;;;;15.14;79.15;102561.09;4872233;29;20552;-67
2021/10/07 02:38:48;;;;;;;12.27;2.90;;;;;;;15.14;79.16;102562.00;4870513;29;20040;-67
2021/10/07 02:41:13;;;;;;;10.00;3.03;;;;;;;15.14;79.07;102566.38;4865895;29;20055;-67
2021/10/07 02:43:38;;;;;;;16.30;3.08;;;;;;;15.13;79.02;102556.69;4865637;29;20102;-67
2021/10/07 02:46:04;;;;;;;14.55;2.90;;;;;;;15.12;79.23;102560.22;4892044;29;20075;-66
2021/10/07 02:48:29;;;;;;;12.68;2.90;;;;;;;15.18;78.82;102560.34;4886816;28;20606;-66
2021/10/07 02:50:55;;;;;;;15.25;3.05;;;;;;;15.16;78.76;102560.31;4877933;28;20454;-65
2021/10/07 02:53:20;;;;;;;12.77;3.00;;;;;;;15.15;78.86;102565.50;4891456;28;20058;-67
2021/10/07 02:55:45;;;;;;;11.40;2.75;;;;;;;15.15;78.86;102562.88;4863882;29;20421;-67
2021/10/07 02:58:11;;;;;;;12.68;3.33;;;;;;;15.16;78.89;102562.03;4879696;29;20044;-67
2021/10/07 03:00:36;;;;;;;11.35;3.13;;;;;;;15.15;78.77;102562.88;4870281;29;20074;-66
2021/10/07 03:03:04;;;;;;;11.63;3.10;;;;;;;15.15;78.77;102565.50;4875697;28;20056;-66
2021/10/07 03:05:29;;;;;;;20.85;3.70;;;;;;;15.15;78.74;102566.41;4880874;28;20200;-67
2021/10/07 03:07:55;;;;;;;17.75;3.13;;;;;;;15.16;78.97;102562.94;4885992;28;20154;-67
2021/10/07 03:10:20;;;;;;;14.00;3.15;;;;;;;15.17;78.82;102576.97;4884887;29;20043;-67
2021/10/07 03:12:46;;;;;;;14.77;3.40;;;;;;;15.18;78.89;102573.47;4884722;28;20035;-67
2021/10/07 03:15:12;;;;;;;9.35;2.95;;;;;;;15.18;78.89;102574.38;4875378;28;20051;-67
2021/10/07 03:17:37;;;;;;;12.93;3.20;;;;;;;15.17;78.60;102577.84;4858202;29;20079;-66
2021/10/07 03:20:05;;;;;;;11.50;3.28;;;;;;;15.16;78.84;102570.81;4886133;28;20050;-67
2021/10/07 03:22:30;;;;;;;13.13;3.22;;;;;;;15.17;78.75;102579.59;4860419;29;20696;-67
2021/10/07 03:24:56;;;;;;;16.90;3.30;;;;;;;15.14;78.76;102579.50;4877560;28;20075;-66
2021/10/07 03:27:21;;;;;;;15.57;3.20;;;;;;;15.13;78.95;102591.75;4870077;29;20155;-67
2021/10/07 03:29:46;;;;;;;14.25;3.45;;;;;;;15.12;78.86;102595.25;4882716;28;20115;-66
2021/10/07 03:32:12;;;;;;;12.25;2.88;;;;;;;15.12;78.93;102587.38;4871997;29;20130;-67
2021/10/07 03:34:37;;;;;;;13.20;3.28;;;;;;;15.12;78.88;102591.75;4881925;29;20050;-68
2021/10/07 03:37:03;;;;;;;14.73;3.38;;;;;;;15.08;78.88;102588.13;4857673;29;20418;-66
2021/10/07 03:39:28;;;;;;;12.13;3.15;;;;;;;15.10;78.79;102594.31;4866590;29;20051;-66
2021/10/07 03:41:53;;;;;;;16.83;3.60;;;;;;;15.11;79.01;102600.47;4885955;28;20079;-66
2021/10/07 03:44:19;;;;;;;16.95;3.05;;;;;;;15.12;78.72;102605.75;4874904;29;20663;-67
2021/10/07 03:46:44;;;;;;;12.10;3.42;;;;;;;15.12;78.83;102604.88;4868600;29;20047;-68
2021/10/07 03:49:10;;;;;;;8.40;3.00;;;;;;;15.13;78.80;102601.38;4845979;28;20042;-66
2021/10/07 03:51:35;;;;;;;10.02;3.30;;;;;;;15.14;78.68;102604.03;4861396;29;20410;-66
2021/10/07 03:54:00;;;;;;;15.02;3.47;;;;;;;15.12;78.77;102603.13;4866757;29;20559;-67
2021/10/07 03:56:26;;;;;;;9.60;2.78;;;;;;;15.18;78.84;102611.16;4870431;29;20043;-67
2021/10/07 03:58:52;;;;;;;14.30;3.40;;;;;;;15.16;78.76;102611.97;4858128;29;20036;-66
2021/10/07 04:01:17;;;;;;;13.43;3.40;;;;;;;15.15;78.76;102618.06;4871903;29;20839;-67
2021/10/07 04:03:44;;;;;;;13.70;3.17;;;;;;;15.16;78.59;102619.84;4868437;29;20583;-67
2021/10/07 04:06:09;;;;;;;20.58;3.60;;;;;;;15.17;78.73;102625.13;4883156;29;20040;-67
2021/10/07 04:08:35;;;;;;;13.93;3.10;;;;;;;15.17;78.85;102624.25;4880394;29;20054;-67
2021/10/07 04:11:00;;;;;;;14.05;3.63;;;;;;;15.19;78.80;102630.41;4872985;29;20166;-66
2021/10/07 04:13:25;;;;;;;18.83;3.35;;;;;;;15.19;78.85;102635.66;4887608;29;20433;-67
2021/10/07 04:15:51;;;;;;;10.98;3.20;;;;;;;15.18;78.67;102642.69;4870989;29;20123;-66
2021/10/07 04:18:18;;;;;;;10.00;2.95;;;;;;;15.18;78.81;102640.06;4860453;29;20039;-67
2021/10/07 04:20:45;;;;;;;9.82;2.83;;;;;;;15.17;78.57;102640.91;4882761;28;20040;-66
2021/10/07 04:23:14;;;;;;;14.15;3.35;;;;;;;15.17;78.84;102640.91;4879863;28;20534;-66
2021/10/07 04:25:40;;;;;;;12.25;3.47;;;;;;;15.17;78.94;102640.00;4867971;29;20040;-66
2021/10/07 04:28:06;;;;;;;9.95;3.20;;;;;;;15.15;78.82;102639.97;4866260;29;20043;-67
2021/10/07 04:30:35;;;;;;;8.95;3.40;;;;;;;15.15;79.08;102639.97;4876294;29;20054;-66
2021/10/07 04:33:02;;;;;;;17.25;3.50;;;;;;;15.15;78.94;102639.97;4870168;28;20510;-66
2021/10/07 04:35:28;;;;;;;14.40;3.50;;;;;;;15.14;79.15;102647.81;4884632;29;20131;-66
2021/10/07 04:37:53;;;;;;;17.13;3.55;;;;;;;15.14;79.15;102642.56;4876741;28;20054;-67
2021/10/07 04:40:19;;;;;;;10.07;3.20;;;;;;;15.15;78.90;102646.97;4880504;29;20371;-67
2021/10/07 04:42:44;;;;;;;11.05;3.38;;;;;;;15.14;79.04;102650.44;4887419;29;20078;-66
2021/10/07 04:45:10;;;;;;;17.63;3.55;;;;;;;15.13;79.03;102657.41;4877984;29;20406;-66
2021/10/07 04:47:35;;;;;;;19.13;3.60;;;;;;;15.12;79.02;102653.03;4878011;29;20131;-66
2021/10/07 04:50:03;;;;;;;13.70;3.45;;;;;;;15.12;78.79;102655.69;4879392;29;20345;-66
2021/10/07 04:52:29;;;;;;;10.23;3.45;;;;;;;15.09;78.90;102655.59;4886263;29;20238;-66
2021/10/07 04:54:54;;;;;;;9.02;3.60;;;;;;;15.06;78.90;102650.28;4873408;28;20100;-66
2021/10/07 04:57:19;;;;;;;21.33;4.03;;;;;;;15.00;79.07;102661.50;4879619;29;20663;-66
2021/10/07 04:59:45;;;;;;;16.33;4.22;;;;;;;15.05;78.92;102658.13;4858687;29;20064;-66
2021/10/07 05:02:12;;;;;;;18.52;4.13;;;;;;;15.05;78.95;102659.00;4846064;29;20048;-66
2021/10/07 05:04:37;;;;;;;14.65;4.28;;;;;;;14.89;79.38;102657.75;4862978;29;20131;-66
2021/10/07 05:07:03;;;;;;;18.10;4.35;;;;;;;14.68;80.22;102656.34;4851321;29;20052;-67
2021/10/07 05:09:28;;;;;;;14.90;4.18;;;;;;;14.63;80.19;102663.22;4835735;29;20627;-67
2021/10/07 05:11:54;;;;;;;11.45;4.10;;;;;;;14.53;80.48;102662.97;4858393;29;20657;-66
2021/10/07 05:14:19;;;;;;;14.90;3.88;;;;;;;14.47;80.46;102657.56;4865281;29;21318;-66
2021/10/07 05:16:44;;;;;;;13.35;3.88;;;;;;;14.76;79.21;102667.94;4861651;29;20047;-66
2021/10/07 05:19:10;;;;;;;11.55;3.85;;;;;;;14.77;79.07;102670.56;4854293;29;20625;-66
2021/10/07 05:21:35;;;;;;;13.25;4.40;;;;;;;14.75;78.88;102677.53;4868715;29;20048;-66
2021/10/07 05:24:00;;;;;;;14.43;4.15;;;;;;;14.72;78.63;102673.94;4864159;29;20056;-66
2021/10/07 05:26:26;;;;;;;8.80;3.22;;;;;;;14.67;78.45;102681.69;4864172;29;20048;-66
2021/10/07 05:28:55;;;;;;;12.70;3.50;;;;;;;14.55;78.70;102684.91;4861075;29;20044;-66
2021/10/07 05:31:21;;;;;;;12.57;3.47;;;;;;;14.47;78.33;102675.03;4850209;29;20580;-67
2021/10/07 05:33:47;;;;;;;11.45;3.60;;;;;;;14.38;78.19;102680.06;4860282;29;20040;-67
2021/10/07 05:36:12;;;;;;;11.10;3.47;;;;;;;14.27;78.24;102687.63;4866353;28;20430;-67
2021/10/07 05:38:38;;;;;;;9.90;3.33;;;;;;;14.18;78.11;102690.88;4861585;29;20040;-66
2021/10/07 05:41:04;;;;;;;8.07;3.50;;;;;;;14.11;78.05;102691.53;4857979;29;20183;-67
2021/10/07 05:43:30;;;;;;;8.23;3.20;;;;;;;14.03;78.08;102694.78;4867757;29;20103;-66
2021/10/07 05:45:55;;;;;;;8.60;3.42;;;;;;;13.95;78.16;102689.34;4871527;29;20123;-68
2021/10/07 05:48:20;;;;;;;6.10;2.88;;;;;;;13.86;78.22;102693.44;4865656;29;20148;-66
2021/10/07 05:50:46;;;;;;;7.65;3.05;;;;;;;13.51;79.45;102700.25;4870393;29;20874;-67
2021/10/07 05:53:11;;;;;;;7.90;3.85;;;;;;;13.33;80.23;102698.84;4856162;29;20923;-68
2021/10/07 05:55:37;;;;;;;9.05;3.80;;;;;;;13.26;80.28;102702.13;4862142;29;20127;-67
2021/10/07 05:58:03;;;;;;;9.18;3.50;;;;;;;13.21;80.35;102698.47;4855483;29;20056;-66
2021/10/07 06:00:28;;;;;;;9.07;3.53;;;;;;;13.16;80.46;102700.06;4876426;29;20577;-66
2021/10/07 06:02:53;;;;;;;12.45;3.55;;;;;;;13.12;80.43;102702.47;4884103;28;20680;-66
2021/10/07 06:05:19;;;;;;;16.35;5.10;;;;;;;13.09;80.75;102707.63;4863546;29;20056;-67
2021/10/07 06:07:44;;;;;;;9.30;3.83;;;;;;;13.07;80.88;102709.31;4867174;29;20044;-67
2021/10/07 06:10:11;;;;;;;14.75;4.72;;;;;;;13.02;80.91;102714.41;4889140;28;20086;-67
2021/10/07 06:12:37;;;;;;;13.52;4.35;;;;;;;12.98;80.80;102710.81;4884026;28;20111;-67
2021/10/07 06:15:03;;;;;;;15.15;4.90;;;;;;;13.04;80.73;102717.06;4878728;28;20055;-67
2021/10/07 06:17:28;;;;;;;15.63;4.80;;;;;;;13.32;79.72;102722.38;4886189;28;20134;-67
2021/10/07 06:20:00;;;;;;;10.25;4.22;;;;;;;13.38;79.31;102717.31;4870616;29;20556;-66
2021/10/07 06:22:25;;;;;;;10.73;3.78;;;;;;;13.46;79.18;102725.44;4880009;29;20419;-66
2021/10/07 06:24:53;;;;;;;10.90;4.00;;;;;;;13.54;78.91;102734.44;4867678;29;20036;-66
2021/10/07 06:27:18;;;;;;;13.57;4.93;;;;;;;13.59;79.38;102730.22;4884150;28;20414;-66
2021/10/07 06:29:43;;;;;;;11.25;4.43;;;;;;;13.62;79.32;102731.19;4889294;29;20454;-66
2021/10/07 06:32:09;;;;;;;12.77;5.45;;;;;;;13.39;79.99;102733.09;4890538;28;20106;-67
2021/10/07 06:34:34;;;;;;;13.45;5.35;;;;;;;13.34;80.82;102732.06;4860900;28;20889;-67
2021/10/07 06:37:00;;;;;;;14.27;4.80;;;;;;;13.67;81.14;102736.56;4877958;28;20436;-67
2021/10/07 06:39:28;;;;;;;12.55;4.43;;;;;;;14.09;80.89;102743.06;4886571;29;20501;-66
2021/10/07 06:41:53;;;;;;;14.15;4.25;;;;;;;14.34;80.11;102746.38;4882304;28;20420;-67
2021/10/07 06:44:19;;;;;;;10.93;4.43;;;;;;;14.39;79.40;102740.47;4869362;29;20048;-68
2021/10/07 06:46:44;;;;;;;9.38;4.20;;;;;;;14.31;78.80;102744.56;4887020;29;20520;-67
2021/10/07 06:49:10;;;;;;;9.15;3.80;;;;;;;14.33;78.42;102750.75;4866917;28;20505;-68
2021/10/07 06:51:35;;;;;;;13.98;3.92;;;;;;;14.26;78.17;102755.78;4883481;28;20548;-68
2021/10/07 06:54:01;;;;;;;8.20;3.40;;;;;;;14.05;77.64;102758.66;4857527;29;20407;-67
2021/10/07 06:56:27;;;;;;;11.68;4.00;;;;;;;13.97;78.32;102766.31;4868281;28;20412;-66
2021/10/07 06:58:53;;;;;;;9.40;3.88;;;;;;;13.94;78.94;102768.84;4850492;29;20035;-66
2021/10/07 07:01:23;;;;;;;9.85;4.30;;;;;;;13.93;78.91;102774.03;4876752;28;20382;-66
2021/10/07 07:03:49;;;;;;;8.75;4.10;;;;;;;13.90;78.99;102776.59;4881559;29;20055;-67
2021/10/07 07:06:15;;;;;;;9.68;4.28;;;;;;;13.91;79.38;102783.59;4868272;29;20039;-66
2021/10/07 07:08:40;;;;;;;10.07;4.10;;;;;;;13.92;79.58;102777.50;4883069;28;20540;-66
2021/10/07 07:11:06;;;;;;;12.18;4.18;;;;;;;13.95;79.47;102782.84;4875509;28;20055;-66
2021/10/07 07:13:31;;;;;;;12.93;4.80;;;;;;;14.03;79.87;102782.22;4850752;29;20583;-66
2021/10/07 07:15:57;;;;;;;13.40;5.43;;;;;;;14.21;80.13;102787.09;4886191;28;20036;-66
2021/10/07 07:18:22;;;;;;;14.57;5.20;;;;;;;14.41;80.43;102787.72;4869837;29;20060;-66
2021/10/07 07:20:49;;;;;;;17.45;6.60;;;;;;;14.65;80.36;102783.16;4860562;29;20040;-67
2021/10/07 07:23:15;;;;;;;18.63;6.47;;;;;;;14.85;80.23;102784.56;4870512;28;20055;-67
2021/10/07 07:25:40;;;;;;;14.75;6.13;;;;;;;14.96;80.49;102777.84;4866439;29;20642;-67
2021/10/07 07:28:06;;;;;;;15.93;5.53;;;;;;;15.07;80.27;102782.47;4864585;29;20071;-66
2021/10/07 07:30:33;;;;;;;14.55;5.55;;;;;;;15.19;80.03;102791.56;4865459;28;20123;-67
2021/10/07 07:32:58;;;;;;;9.15;4.75;;;;;;;15.29;80.03;102793.59;4846285;29;20044;-66
2021/10/07 07:35:25;;;;;;;15.77;4.97;;;;;;;15.44;79.68;102798.31;4869624;29;20374;-65
2021/10/07 07:37:50;;;;;;;12.90;5.20;;;;;;;15.56;79.59;102797.75;4861349;29;20493;-66
2021/10/07 07:40:16;;;;;;;14.93;5.55;;;;;;;15.68;79.51;102798.91;4855457;29;20048;-66
2021/10/07 07:42:41;;;;;;;13.52;5.30;;;;;;;15.77;79.09;102801.78;4863182;29;20509;-66
2021/10/07 07:45:08;;;;;;;12.50;5.20;;;;;;;16.22;77.57;102808.88;4855515;28;20585;-68
2021/10/07 07:47:33;;;;;;;14.93;5.18;;;;;;;16.33;77.18;102804.72;4885825;28;20516;-66
2021/10/07 07:49:59;;;;;;;11.93;5.40;;;;;;;16.45;76.82;102812.88;4860933;29;20055;-66
2021/10/07 07:52:24;;;;;;;11.77;5.50;;;;;;;16.50;76.79;102812.97;4891999;28;20035;-67
2021/10/07 07:54:51;;;;;;;13.73;5.20;;;;;;;16.59;76.72;102815.75;4869952;29;20056;-66
2021/10/07 07:57:19;;;;;;;14.43;5.28;;;;;;;16.70;76.70;102818.66;4869750;29;20134;-67
2021/10/07 07:59:44;;;;;;;12.45;5.50;;;;;;;16.83;76.63;102824.16;4838178;28;20044;-67
2021/10/07 08:02:14;;;;;;;11.55;5.28;;;;;;;16.91;76.36;102825.19;4884783;28;20042;-66
2021/10/07 08:04:40;;;;;;;10.88;4.93;;;;;;;17.04;75.95;102831.56;4884008;28;20260;-67
2021/10/07 08:07:05;;;;;;;13.05;5.07;;;;;;;17.11;76.01;102832.56;4855555;28;20099;-68
2021/10/07 08:09:32;;;;;;;11.80;4.60;;;;;;;17.20;75.64;102833.59;4884169;28;20154;-68
2021/10/07 08:11:58;;;;;;;11.60;4.65;;;;;;;17.25;75.37;102831.06;4880784;29;20062;-67
2021/10/07 08:14:23;;;;;;;14.10;4.70;;;;;;;17.09;75.41;102839.56;4882649;28;20167;-66
2021/10/07 08:16:48;;;;;;;9.80;4.45;;;;;;;16.97;76.36;102835.84;4869355;28;20126;-66
2021/10/07 08:19:14;;;;;;;13.05;4.65;;;;;;;17.01;76.05;102844.72;4885705;28;20051;-67
2021/10/07 08:21:41;;;;;;;9.30;4.32;;;;;;;17.03;76.37;102843.88;4866440;28;20051;-65
2021/10/07 08:24:09;;;;;;;11.95;4.00;;;;;;;17.08;75.50;102838.66;4881040;28;20367;-67
2021/10/07 08:26:35;;;;;;;9.40;4.10;;;;;;;17.14;75.71;102840.56;4871948;29;20040;-67
2021/10/07 08:29:01;;;;;;;11.50;3.90;;;;;;;17.20;75.34;102845.94;4860622;28;20430;-66
2021/10/07 08:31:27;;;;;;;8.43;3.65;;;;;;;17.29;74.71;102839.06;4871189;29;20047;-66
2021/10/07 08:33:52;;;;;;;13.88;3.35;;;;;;;17.39;73.95;102842.72;4862542;29;20048;-66
2021/10/07 08:36:18;;;;;;;11.60;3.40;;;;;;;17.48;73.53;102848.16;4880553;28;20126;-67
2021/10/07 08:38:43;;;;;;;11.52;3.70;;;;;;;17.58;73.31;102850.06;4860204;29;20036;-65
2021/10/07 08:41:08;;;;;;;9.30;3.10;;;;;;;17.66;72.41;102850.22;4869191;28;20048;-67
2021/10/07 08:43:34;;;;;;;9.93;3.60;;;;;;;17.77;72.51;102852.16;4874881;28;20054;-67
2021/10/07 08:46:08;;;;;;;12.82;3.03;;;;;;;17.90;72.52;102860.25;4836358;29;20036;-69
2021/10/07 08:48:34;;;;;;;7.00;2.67;;;;;;;17.94;72.08;102855.03;4878143;29;20051;-67
2021/10/07 08:50:59;;;;;;;12.57;2.92;;;;;;;17.99;70.82;102863.91;4857445;28;20470;-66
2021/10/07 08:53:25;;;;;;;9.52;3.08;;;;;;;18.08;70.23;102863.16;4880454;28;20047;-66
2021/10/07 08:55:50;;;;;;;13.50;3.15;;;;;;;18.12;71.42;102865.88;4849870;29;20532;-66
2021/10/07 08:58:16;;;;;;;8.82;2.90;;;;;;;18.21;71.11;102865.13;4863048;29;20044;-68
2021/10/07 09:00:42;;;;;;;12.15;2.83;;;;;;;18.28;70.38;102868.72;4879543;28;20044;-67
2021/10/07 09:03:21;;;;;;;12.60;3.08;;;;;;;18.50;71.12;102863.72;4864775;28;20363;-66
2021/10/07 09:05:48;;;;;;;14.43;3.15;;;;;;;18.59;67.65;102863.00;4868477;29;20044;-67
2021/10/07 09:08:15;;;;;;;12.23;2.72;;;;;;;18.59;67.76;102860.38;4885939;28;20489;-68
2021/10/07 09:10:46;;;;;;;9.80;2.60;;;;;;;18.62;65.38;102869.19;4860732;29;20066;-66
2021/10/07 09:13:18;;;;;;;9.95;2.47;;;;;;;18.76;66.04;102860.53;4873160;29;20058;-66
2021/10/07 09:15:49;;;;;;;9.30;2.53;;;;;;;18.77;65.32;102857.03;4863264;29;20496;-68
2021/10/07 09:18:15;;;;;;;11.18;2.60;;;;;;;18.81;64.73;102861.47;4881010;28;20044;-67
2021/10/07 09:20:44;;;;;;;8.68;2.45;;;;;;;18.72;66.63;102866.69;4875134;29;20511;-66
2021/10/07 09:23:17;;;;;;;14.95;2.80;;;;;;;18.66;67.27;102866.59;4863689;28;20055;-67
2021/10/07 09:26:04;;;;;;;11.03;2.40;;;;;;;18.64;68.67;102867.47;4877766;28;20039;-67
2021/10/07 09:28:48;;;;;;;10.18;2.47;;;;;;;18.70;66.52;102861.38;4883010;29;20295;-66
2021/10/07 09:31:14;;;;;;;10.23;2.42;;;;;;;18.76;65.15;102864.06;4873107;29;20052;-67
2021/10/07 09:33:43;;;;;;;10.30;2.42;;;;;;;18.75;69.06;102869.34;4865782;29;20887;-66
2021/10/07 09:36:19;;;;;;;12.15;2.67;;;;;;;18.77;67.67;102855.28;4875930;29;20054;-66
2021/10/07 09:38:50;;;;;;;10.45;2.90;;;;;;;18.85;65.95;102858.00;4844841;29;20040;-66
2021/10/07 09:41:21;;;;;;;12.85;2.60;;;;;;;18.92;65.85;102863.38;4855400;29;20044;-65
2021/10/07 09:43:51;;;;;;;10.57;2.60;;;;;;;19.02;66.96;102867.00;4868229;29;20872;-66
2021/10/07 09:46:41;;;;;;;10.18;2.40;;;;;;;19.26;66.50;102861.94;4870951;29;20126;-66
2021/10/07 09:49:14;;;;;;;7.85;2.30;;;;;;;19.50;65.22;102855.13;4880647;28;20212;-65
2021/10/07 09:51:45;;;;;;;7.00;2.22;;;;;;;19.53;66.02;102856.03;4884341;28;20409;-67
2021/10/07 09:54:11;;;;;;;9.88;2.20;;;;;;;19.72;61.54;102857.06;4885452;28;20372;-67
2021/10/07 09:56:37;;;;;;;7.78;2.05;;;;;;;19.53;63.24;102863.06;4869861;28;20048;-66
2021/10/07 09:59:07;;;;;;;7.68;1.63;;;;;;;19.65;61.07;102857.88;4853387;28;20965;-66
2021/10/07 10:01:33;;;;;;;11.60;2.15;;;;;;;19.70;62.18;102866.75;4871515;28;20036;-66
2021/10/07 10:03:59;;;;;;;11.30;1.90;;;;;;;19.67;63.62;102872.00;4842149;29;20720;-66
2021/10/07 10:06:24;;;;;;;7.85;1.92;;;;;;;19.65;63.61;102866.69;4870119;29;20198;-66
2021/10/07 10:08:50;;;;;;;6.88;1.67;;;;;;;19.55;62.06;102864.88;4856318;28;20051;-66
2021/10/07 10:11:19;;;;;;;7.53;1.67;;;;;;;19.41;60.27;102858.53;4869926;28;20046;-67
2021/10/07 10:13:46;;;;;;;7.43;2.05;;;;;;;19.30;60.63;102866.38;4878547;28;20071;-66
2021/10/07 10:16:12;;;;;;;7.72;2.05;;;;;;;19.17;62.73;102864.50;4871408;29;20062;-66
2021/10/07 10:18:38;;;;;;;9.30;2.20;;;;;;;19.18;63.08;102862.75;4867722;29;20035;-66
2021/10/07 10:21:04;;;;;;;7.35;1.70;;;;;;;19.17;61.99;102860.97;4854163;29;20434;-66
2021/10/07 10:23:31;;;;;;;8.60;1.90;;;;;;;19.06;61.69;102858.22;4852582;29;20048;-65
2021/10/07 10:26:11;;;;;;;8.40;2.08;;;;;;;19.07;63.04;102861.75;4867372;29;20164;-66
2021/10/07 10:28:46;;;;;;;10.70;1.83;;;;;;;19.24;65.06;102857.50;4873381;28;20634;-66
2021/10/07 10:31:18;;;;;;;6.38;1.42;;;;;;;19.22;61.62;102865.41;4874587;29;20074;-66
2021/10/07 10:33:48;;;;;;;9.73;2.15;;;;;;;19.08;61.13;102856.50;4886673;28;20486;-66
2021/10/07 10:36:23;;;;;;;6.65;2.08;;;;;;;19.17;61.84;102867.16;4882754;29;20051;-66
2021/10/07 10:39:10;;;;;;;10.70;2.15;;;;;;;19.04;60.58;102867.88;4873521;28;20062;-66
2021/10/07 10:41:55;;;;;;;9.75;1.88;;;;;;;19.28;60.13;102857.53;4884071;28;20048;-68
2021/10/07 10:44:26;;;;;;;6.28;1.63;;;;;;;19.42;59.92;102865.59;4881322;28;20047;-65
2021/10/07 10:47:15;;;;;;;7.10;1.60;;;;;;;19.42;59.19;102862.97;4879752;28;20044;-66
2021/10/07 10:49:50;;;;;;;7.57;1.65;;;;;;;19.60;57.66;102870.19;4885967;28;20058;-66
2021/10/07 10:52:22;;;;;;;6.13;1.70;;;;;;;19.71;58.90;102868.50;4872544;29;20578;-66
2021/10/07 10:55:08;;;;;;;4.65;1.40;;;;;;;19.82;59.98;102869.50;4852293;28;20063;-66
2021/10/07 10:57:35;;;;;;;8.75;1.40;;;;;;;20.00;59.33;102858.13;4892695;28;20050;-66
2021/10/07 11:00:18;;;;;;;8.23;1.80;;;;;;;19.87;57.88;102865.09;4884779;29;20048;-67
2021/10/07 11:02:50;;;;;;;6.80;1.35;;;;;;;19.68;57.02;102869.38;4870854;29;20540;-64
2021/10/07 11:05:16;;;;;;;7.65;1.52;;;;;;;19.93;58.58;102870.44;4881959;29;20154;-66
2021/10/07 11:07:42;;;;;;;4.82;1.35;;;;;;;20.03;58.99;102874.03;4882113;29;20059;-66
2021/10/07 11:10:14;;;;;;;5.75;1.50;;;;;;;19.94;61.07;102879.28;4866026;29;20067;-66
2021/10/07 11:12:57;;;;;;;5.57;1.40;;;;;;;20.10;57.31;102879.38;4874346;29;20048;-67
2021/10/07 11:15:27;;;;;;;8.83;1.60;;;;;;;19.97;56.61;102873.97;4880793;28;20099;-65
2021/10/07 11:17:55;;;;;;;6.13;1.35;;;;;;;19.77;55.96;102874.72;4880115;28;20039;-66
2021/10/07 11:20:24;;;;;;;6.95;1.42;;;;;;;19.92;58.62;102876.63;4885824;28;20043;-66
2021/10/07 11:23:04;;;;;;;4.07;1.15;;;;;;;19.96;60.22;102878.38;4873689;28;20384;-66
2021/10/07 11:25:30;;;;;;;5.88;1.52;;;;;;;19.92;59.04;102876.63;4870763;28;20054;-66